createdAt,value
2019-04-10T00:01:12.187Z,22.35
2019-04-10T00:03:42.495Z,23.77
2019-04-10T00:06:10.567Z,23.75
2019-04-10T00:08:38.977Z,25.50
2019-04-10T00:11:08.165Z,25.85
2019-04-10T00:13:36.658Z,24.47
2019-04-10T00:16:05.614Z,25.32
2019-04-10T00:18:34.220Z,25.27
2019-04-10T00:21:02.613Z,25.88
2019-04-10T00:23:31.166Z,25.88
2019-04-10T00:25:59.501Z,25.85
2019-04-10T00:28:27.900Z,25.02
2019-04-10T00:30:56.276Z,26.30
2019-04-10T00:33:24.929Z,25.72
2019-04-10T00:35:54.002Z,27.13
2019-04-10T00:38:22.548Z,26.60
2019-04-10T00:40:51.935Z,27.75
2019-04-10T00:43:20.316Z,37.50
2019-04-10T00:45:49.416Z,39.58
2019-04-10T00:48:17.991Z,39.70
2019-04-10T00:50:46.624Z,45.03
2019-04-10T00:53:14.940Z,42.27
2019-04-10T00:55:44.026Z,42.60
2019-04-10T00:58:12.616Z,47.33
2019-04-10T01:00:41.223Z,50.40
2019-04-10T01:03:11.392Z,50.95
2019-04-10T01:05:39.805Z,53.60
2019-04-10T01:08:08.698Z,57.38
2019-04-10T01:10:37.186Z,59.40
2019-04-10T01:13:05.568Z,61.58
2019-04-10T01:15:34.467Z,58.75
2019-04-10T01:18:02.836Z,63.73
2019-04-10T01:20:31.349Z,59.18
2019-04-10T01:22:59.706Z,58.13
2019-04-10T01:25:28.106Z,58.58
2019-04-10T01:27:56.654Z,60.83
2019-04-10T01:30:25.051Z,56.85
2019-04-10T01:32:54.364Z,59.42
2019-04-10T01:35:22.844Z,59.40
2019-04-10T01:37:56.236Z,59.85
2019-04-10T01:40:21.766Z,62.83
2019-04-10T01:43:02.734Z,66.87
2019-04-10T01:45:20.133Z,67.40
2019-04-10T01:47:48.503Z,64.40
2019-04-10T01:50:17.941Z,68.78
2019-04-10T01:52:47.133Z,65.20
2019-04-10T01:55:23.069Z,66.00
2019-04-10T01:57:46.343Z,62.62
2019-04-10T02:00:16.507Z,68.35
2019-04-10T02:02:49.617Z,67.10
2019-04-10T02:05:18.746Z,65.40
2019-04-10T02:07:59.645Z,65.78
2019-04-10T02:10:18.455Z,72.17
2019-04-10T02:12:47.257Z,66.07
2019-04-10T02:15:15.927Z,70.20
2019-04-10T02:17:44.558Z,63.63
2019-04-10T02:20:12.947Z,65.87
2019-04-10T02:22:41.348Z,65.95
2019-04-10T02:25:10.291Z,67.20
2019-04-10T02:27:38.731Z,65.67
2019-04-10T02:30:10.365Z,67.27
2019-04-10T02:32:39.460Z,70.83
2019-04-10T02:35:13.198Z,63.83
2019-04-10T02:37:39.577Z,64.65
2019-04-10T02:40:09.846Z,62.58
2019-04-10T02:42:38.717Z,64.62
2019-04-10T02:45:08.493Z,60.67
2019-04-10T02:47:38.818Z,62.60
2019-04-10T02:50:08.354Z,63.60
2019-04-10T02:52:40.173Z,59.88
2019-04-10T02:55:09.311Z,62.55
2019-04-10T02:57:39.020Z,59.08
2019-04-10T03:00:08.465Z,62.50
2019-04-10T03:02:38.786Z,59.95
2019-04-10T03:05:07.235Z,62.05
2019-04-10T03:07:35.931Z,65.60
2019-04-10T03:10:17.589Z,60.40
2019-04-10T03:12:36.504Z,66.92
2019-04-10T03:15:07.871Z,63.65
2019-04-10T03:17:36.689Z,64.10
2019-04-10T03:20:06.179Z,61.00
2019-04-10T03:22:34.722Z,59.35
2019-04-10T03:25:03.044Z,63.15
2019-04-10T03:27:31.439Z,60.35
2019-04-10T03:30:00.203Z,64.60
2019-04-10T03:32:35.371Z,60.65
2019-04-10T03:35:02.852Z,60.35
2019-04-10T03:37:31.968Z,64.27
2019-04-10T03:40:00.378Z,62.93
2019-04-10T03:42:28.778Z,61.08
2019-04-10T03:44:57.159Z,60.88
2019-04-10T03:47:25.587Z,59.27
2019-04-10T03:49:54.073Z,59.80
2019-04-10T03:52:22.459Z,59.98
2019-04-10T03:54:50.831Z,59.60
2019-04-10T03:57:19.231Z,65.67
2019-04-10T03:59:47.669Z,60.63
2019-04-10T04:02:16.011Z,64.27
2019-04-10T04:04:44.469Z,61.05
2019-04-10T04:07:13.396Z,62.15
2019-04-10T04:09:41.959Z,59.13
2019-04-10T04:12:10.546Z,62.13
2019-04-10T04:14:39.459Z,62.00
2019-04-10T04:17:08.091Z,59.50
2019-04-10T04:19:37.892Z,62.17
2019-04-10T04:22:06.399Z,58.58
2019-04-10T04:24:35.749Z,60.67
2019-04-10T04:27:04.832Z,64.70
2019-04-10T04:29:34.423Z,61.75
2019-04-10T04:32:02.874Z,61.28
2019-04-10T04:34:31.360Z,62.95
2019-04-10T04:37:00.369Z,62.17
2019-04-10T04:39:30.031Z,63.25
2019-04-10T04:41:58.845Z,60.90
2019-04-10T04:44:27.302Z,61.73
2019-04-10T04:46:55.640Z,62.90
2019-04-10T04:49:24.332Z,63.15
2019-04-10T04:51:52.714Z,62.25
2019-04-10T04:54:21.349Z,60.70
2019-04-10T04:56:50.455Z,64.75
2019-04-10T04:59:19.011Z,66.92
2019-04-10T05:01:47.435Z,60.23
2019-04-10T05:04:15.829Z,66.90
2019-04-10T05:06:44.239Z,71.37
2019-04-10T05:09:17.057Z,69.80
2019-04-10T05:11:43.279Z,64.77
2019-04-10T05:14:11.631Z,63.38
2019-04-10T05:16:40.058Z,64.32
2019-04-10T05:19:08.553Z,63.90
2019-04-10T05:21:37.259Z,64.03
2019-04-10T05:24:05.770Z,62.90
2019-04-10T05:26:34.352Z,65.03
2019-04-10T05:29:02.850Z,61.90
2019-04-10T05:31:32.198Z,62.38
2019-04-10T05:34:00.909Z,61.65
2019-04-10T05:36:29.367Z,59.10
2019-04-10T05:38:57.842Z,59.65
2019-04-10T05:41:26.219Z,64.47
2019-04-10T05:43:55.061Z,62.67
2019-04-10T05:46:24.869Z,60.45
2019-04-10T05:48:53.598Z,57.35
2019-04-10T05:51:23.251Z,58.30
2019-04-10T05:53:53.910Z,63.05
2019-04-10T05:56:22.518Z,62.80
2019-04-10T05:58:51.145Z,59.23
2019-04-10T06:01:31.356Z,57.78
2019-04-10T06:03:49.860Z,56.88
2019-04-10T06:06:18.391Z,57.45
2019-04-10T06:08:47.072Z,53.87
2019-04-10T06:11:15.604Z,57.65
2019-04-10T06:13:45.074Z,57.27
2019-04-10T06:16:13.581Z,57.88
2019-04-10T06:18:43.063Z,56.45
2019-04-10T06:21:12.478Z,53.83
2019-04-10T06:23:41.377Z,53.80
2019-04-10T06:26:10.212Z,52.62
2019-04-10T06:28:38.699Z,50.83
2019-04-10T06:31:08.093Z,52.20
2019-04-10T06:33:36.710Z,49.77
2019-04-10T06:36:05.104Z,49.95
2019-04-10T06:38:33.524Z,48.85
2019-04-10T06:41:02.224Z,52.03
2019-04-10T06:43:30.909Z,50.25
2019-04-10T06:45:59.982Z,49.90
2019-04-10T06:48:28.554Z,47.83
2019-04-10T06:50:56.946Z,47.98
2019-04-10T06:53:25.371Z,48.70
2019-04-10T06:55:54.432Z,50.88
2019-04-10T06:58:23.669Z,49.65
2019-04-10T07:00:54.575Z,47.80
2019-04-10T07:03:23.131Z,49.10
2019-04-10T07:06:02.466Z,47.73
2019-04-10T07:08:24.410Z,46.70
2019-04-10T07:11:01.372Z,48.25
2019-04-10T07:13:23.889Z,46.68
2019-04-10T07:15:57.136Z,45.85
2019-04-10T07:18:22.515Z,46.53
2019-04-10T07:20:50.905Z,47.75
2019-04-10T07:23:25.840Z,45.90
2019-04-10T07:25:49.938Z,45.25
2019-04-10T07:28:19.423Z,45.40
2019-04-10T07:30:47.879Z,44.38
2019-04-10T07:33:18.088Z,46.65
2019-04-10T07:35:46.476Z,44.85
2019-04-10T07:38:15.909Z,45.90
2019-04-10T07:40:44.980Z,44.88
2019-04-10T07:43:13.502Z,46.20
2019-04-10T07:45:41.998Z,44.55
2019-04-10T07:48:10.712Z,44.08
2019-04-10T07:50:39.200Z,43.17
2019-04-10T07:53:08.369Z,44.95
2019-04-10T07:55:37.419Z,43.13
2019-04-10T07:58:06.862Z,43.13
2019-04-10T08:00:35.234Z,43.87
2019-04-10T08:03:04.205Z,43.83
2019-04-10T08:05:33.290Z,45.12
2019-04-10T08:08:02.926Z,45.28
2019-04-10T08:10:32.627Z,43.80
2019-04-10T08:13:02.271Z,43.08
2019-04-10T08:15:31.567Z,43.17
2019-04-10T08:18:00.372Z,45.43
2019-04-10T08:20:29.211Z,43.05
2019-04-10T08:22:57.626Z,43.95
2019-04-10T08:25:26.957Z,43.40
2019-04-10T08:27:56.362Z,43.90
2019-04-10T08:30:25.841Z,42.60
2019-04-10T08:33:00.764Z,45.28
2019-04-10T08:35:25.084Z,44.00
2019-04-10T08:37:53.569Z,41.83
2019-04-10T08:40:23.145Z,45.23
2019-04-10T08:42:51.750Z,42.98
2019-04-10T08:45:21.004Z,45.17
2019-04-10T08:47:50.709Z,43.65
2019-04-10T08:50:19.706Z,43.63
2019-04-10T08:52:48.713Z,43.90
2019-04-10T08:55:17.726Z,44.53
2019-04-10T08:57:46.261Z,43.05
2019-04-10T09:00:14.700Z,43.68
2019-04-10T09:02:44.379Z,43.25
2019-04-10T09:05:13.316Z,44.75
2019-04-10T09:07:41.673Z,43.55
2019-04-10T09:10:10.278Z,42.35
2019-04-10T09:12:38.962Z,42.45
2019-04-10T09:15:07.808Z,42.88
2019-04-10T09:17:37.519Z,42.48
2019-04-10T09:20:06.916Z,40.65
2019-04-10T09:22:56.285Z,40.12
2019-04-10T09:25:06.967Z,42.23
2019-04-10T09:27:35.935Z,40.85
2019-04-10T09:30:06.726Z,43.73
2019-04-10T09:32:35.246Z,44.35
2019-04-10T09:35:04.679Z,44.00
2019-04-10T09:37:33.125Z,42.15
2019-04-10T09:40:01.547Z,43.95
2019-04-10T09:42:31.055Z,43.08
2019-04-10T09:45:00.429Z,43.23
2019-04-10T09:47:28.821Z,40.67
2019-04-10T09:49:57.700Z,39.65
2019-04-10T09:52:26.053Z,40.40
2019-04-10T09:54:55.274Z,38.17
2019-04-10T09:57:24.562Z,41.98
2019-04-10T09:59:53.081Z,41.08
2019-04-10T10:02:21.481Z,41.90
2019-04-10T10:04:50.423Z,40.12
2019-04-10T10:07:19.107Z,40.35
2019-04-10T10:09:47.535Z,39.73
2019-04-10T10:12:15.940Z,42.30
2019-04-10T10:14:44.430Z,42.15
2019-04-10T10:17:12.841Z,39.45
2019-04-10T10:19:42.518Z,41.53
2019-04-10T10:22:11.125Z,41.63
2019-04-10T10:24:40.457Z,39.63
2019-04-10T10:27:09.467Z,39.73
2019-04-10T10:29:37.918Z,41.10
2019-04-10T10:32:06.363Z,41.95
2019-04-10T10:34:34.854Z,38.38
2019-04-10T10:37:03.936Z,40.92
2019-04-10T10:39:32.443Z,38.42
2019-04-10T10:42:00.856Z,40.33
2019-04-10T10:44:30.122Z,40.52
2019-04-10T10:46:58.562Z,40.40
2019-04-10T10:49:26.960Z,40.30
2019-04-10T10:51:55.448Z,39.70
2019-04-10T10:54:25.029Z,38.58
2019-04-10T10:56:55.039Z,38.17
2019-04-10T10:59:23.426Z,39.23
2019-04-10T11:01:51.978Z,38.48
2019-04-10T11:04:21.078Z,39.13
2019-04-10T11:06:57.693Z,38.73
2019-04-10T11:09:21.171Z,38.45
2019-04-10T11:11:49.553Z,38.08
2019-04-10T11:14:19.072Z,38.53
2019-04-10T11:16:47.537Z,37.50
2019-04-10T11:19:17.151Z,36.77
2019-04-10T11:21:46.993Z,36.83
2019-04-10T11:24:15.505Z,36.33
2019-04-10T11:26:44.091Z,36.38
2019-04-10T11:29:14.217Z,35.20
2019-04-10T11:31:42.558Z,33.67
2019-04-10T11:34:11.282Z,32.08
2019-04-10T11:36:40.156Z,32.65
2019-04-10T11:39:18.641Z,30.60
2019-04-10T11:41:39.824Z,31.82
2019-04-10T11:44:09.858Z,31.45
2019-04-10T11:46:41.855Z,28.20
2019-04-10T11:49:12.919Z,29.67
2019-04-10T11:51:39.055Z,28.95
2019-04-10T11:54:11.014Z,28.73
2019-04-10T11:56:38.445Z,27.42
2019-04-10T11:59:09.164Z,28.05
2019-04-10T12:01:38.662Z,27.58
2019-04-10T12:04:10.087Z,26.60
2019-04-10T12:06:38.230Z,26.95
2019-04-10T12:11:39.317Z,28.87
2019-04-10T12:14:07.729Z,28.20
2019-04-10T12:16:36.879Z,25.72
2019-04-10T12:19:05.243Z,25.70
2019-04-10T12:21:33.753Z,28.30
2019-04-10T12:24:02.165Z,26.77
2019-04-10T12:26:30.531Z,26.65
2019-04-10T12:28:58.925Z,25.57
2019-04-10T12:31:28.119Z,23.52
2019-04-10T12:33:56.984Z,23.70
2019-04-10T12:36:25.409Z,25.27
2019-04-10T12:38:54.105Z,24.72
2019-04-10T12:41:23.503Z,23.70
2019-04-10T12:43:51.940Z,24.60
2019-04-10T12:46:21.101Z,23.02
2019-04-10T12:48:50.624Z,23.55
2019-04-10T12:51:19.376Z,22.30
2019-04-10T12:53:47.804Z,24.07
2019-04-10T12:56:16.211Z,23.83
2019-04-10T12:58:44.738Z,22.60
2019-04-10T13:01:14.249Z,22.30
2019-04-10T13:03:43.167Z,23.10
2019-04-10T13:06:11.578Z,21.50
2019-04-10T13:08:55.720Z,21.40
2019-04-10T13:11:10.122Z,20.95
2019-04-10T13:13:38.672Z,20.70
2019-04-10T13:16:07.797Z,22.05
2019-04-10T13:18:36.452Z,21.80
2019-04-10T13:21:04.871Z,21.30
2019-04-10T13:23:33.252Z,20.95
2019-04-10T13:26:03.777Z,21.27
2019-04-10T13:28:31.780Z,21.10
2019-04-10T13:31:35.194Z,21.07
2019-04-10T13:34:04.837Z,20.97
2019-04-10T13:36:53.539Z,20.68
2019-04-10T13:39:22.436Z,20.12
2019-04-10T13:41:50.878Z,21.37
2019-04-10T13:44:19.282Z,21.05
2019-04-10T13:46:47.729Z,20.55
2019-04-10T13:49:16.067Z,20.72
2019-04-10T13:51:45.590Z,21.17
2019-04-10T13:54:16.050Z,21.77
2019-04-10T13:56:45.385Z,21.97
2019-04-10T13:59:15.273Z,20.35
2019-04-10T14:01:43.988Z,20.32
2019-04-10T14:04:12.356Z,19.80
2019-04-10T14:06:41.437Z,20.85
2019-04-10T14:09:28.860Z,20.92
2019-04-10T14:11:43.682Z,20.90
2019-04-10T14:14:12.658Z,20.17
2019-04-10T14:16:41.218Z,20.05
2019-04-10T14:19:09.660Z,20.15
2019-04-10T14:21:38.019Z,19.85
2019-04-10T14:24:07.296Z,19.95
2019-04-10T14:26:48.894Z,19.77
2019-04-10T14:29:14.744Z,18.82
2019-04-10T14:31:47.639Z,19.77
2019-04-10T14:34:18.432Z,20.20
2019-04-10T14:36:46.363Z,21.02
2019-04-10T14:39:18.466Z,19.48
2019-04-10T14:41:46.161Z,21.02
2019-04-10T14:44:14.693Z,20.50
2019-04-10T14:46:44.154Z,20.30
2019-04-10T14:49:13.188Z,20.82
2019-04-10T14:51:41.625Z,21.25
2019-04-10T14:54:11.278Z,21.33
2019-04-10T14:56:40.033Z,21.50
2019-04-10T14:59:09.286Z,21.77
2019-04-10T15:01:38.183Z,21.87
2019-04-10T15:04:06.752Z,20.65
2019-04-10T15:06:35.083Z,20.85
2019-04-10T15:09:06.136Z,20.02
2019-04-10T15:11:34.961Z,21.80
2019-04-10T15:14:03.457Z,21.75
2019-04-10T15:16:31.803Z,22.15
2019-04-10T15:19:00.365Z,22.62
2019-04-10T15:21:29.158Z,20.72
2019-04-10T15:23:57.572Z,19.75
2019-04-10T15:26:26.281Z,21.55
2019-04-10T15:28:54.642Z,20.95
2019-04-10T15:31:26.057Z,21.73
2019-04-10T15:33:53.828Z,21.85
2019-04-10T15:36:22.260Z,21.70
2019-04-10T15:38:50.664Z,21.48
2019-04-10T15:41:19.075Z,22.07
2019-04-10T15:43:47.676Z,22.30
2019-04-10T15:46:17.137Z,22.40
2019-04-10T15:48:46.077Z,22.37
2019-04-10T15:51:14.648Z,21.10
2019-04-10T15:53:43.211Z,21.07
2019-04-10T15:56:11.793Z,22.67
2019-04-10T15:58:40.168Z,23.15
2019-04-10T16:01:10.195Z,24.70
2019-04-10T16:03:40.575Z,23.73
2019-04-10T16:06:09.208Z,25.08
2019-04-10T16:08:38.507Z,24.98
2019-04-10T16:11:09.741Z,24.95
2019-04-10T16:13:40.888Z,24.40
2019-04-10T16:16:27.602Z,24.00
2019-04-10T16:18:57.740Z,25.10
2019-04-10T16:21:26.936Z,25.10
2019-04-10T16:24:00.503Z,25.75
2019-04-10T16:26:29.350Z,26.25
2019-04-10T16:28:57.822Z,26.42
2019-04-10T16:31:26.217Z,26.65
2019-04-10T16:33:54.693Z,27.10
2019-04-10T16:36:23.473Z,26.02
2019-04-10T16:38:53.171Z,26.27
2019-04-10T16:41:21.600Z,28.57
2019-04-10T16:43:50.754Z,27.80
2019-04-10T16:46:20.331Z,27.73
2019-04-10T16:48:48.801Z,27.32
2019-04-10T16:51:18.358Z,27.27
2019-04-10T16:53:47.994Z,28.30
2019-04-10T16:56:17.602Z,28.83
2019-04-10T16:58:46.182Z,27.32
2019-04-10T17:01:14.702Z,28.42
2019-04-10T17:03:44.134Z,29.75
2019-04-10T17:06:12.635Z,27.77
2019-04-10T17:08:41.053Z,28.87
2019-04-10T17:11:09.996Z,28.52
2019-04-10T17:13:38.638Z,28.75
2019-04-10T17:16:07.313Z,27.22
2019-04-10T17:18:36.010Z,27.77
2019-04-10T17:21:04.779Z,29.00
2019-04-10T17:23:34.351Z,29.32
2019-04-10T17:26:04.489Z,26.82
2019-04-10T17:28:32.872Z,27.65
2019-04-10T17:31:02.352Z,28.15
2019-04-10T17:33:32.146Z,32.03
2019-04-10T17:36:00.724Z,28.87
2019-04-10T17:38:29.099Z,26.15
2019-04-10T17:41:00.318Z,27.48
2019-04-10T17:43:28.605Z,26.00
2019-04-10T17:45:58.643Z,27.73
2019-04-10T17:48:28.303Z,27.07
2019-04-10T17:50:57.524Z,27.20
2019-04-10T17:53:26.146Z,26.48
2019-04-10T17:55:55.817Z,27.65
2019-04-10T17:58:25.325Z,27.85
2019-04-10T18:00:59.655Z,26.73
2019-04-10T18:03:41.474Z,25.00
2019-04-10T18:05:59.304Z,25.37
2019-04-10T18:08:29.721Z,26.12
2019-04-10T18:10:58.726Z,27.17
2019-04-10T18:13:27.319Z,28.15
2019-04-10T18:15:56.942Z,28.35
2019-04-10T18:18:25.599Z,27.62
2019-04-10T18:20:53.995Z,27.20
2019-04-10T18:23:23.075Z,27.32
2019-04-10T18:25:51.897Z,28.73
2019-04-10T18:28:21.354Z,29.55
2019-04-10T18:30:49.895Z,31.33
2019-04-10T18:33:18.340Z,32.23
2019-04-10T18:35:47.075Z,34.50
2019-04-10T18:38:15.799Z,32.03
2019-04-10T18:40:53.053Z,32.85
2019-04-10T18:43:14.323Z,30.27
2019-04-10T18:45:54.716Z,30.27
2019-04-10T18:48:14.480Z,29.57
2019-04-10T18:50:43.442Z,28.25
2019-04-10T18:53:13.079Z,28.30
2019-04-10T18:55:42.747Z,28.98
2019-04-10T18:58:15.851Z,27.25
2019-04-10T19:00:54.795Z,28.32
2019-04-10T19:03:48.871Z,26.93
2019-04-10T19:06:20.691Z,25.80
2019-04-10T19:09:01.626Z,28.80
2019-04-10T19:11:23.116Z,26.93
2019-04-10T19:13:49.225Z,27.85
2019-04-10T19:16:19.566Z,28.02
2019-04-10T19:18:48.031Z,26.82
2019-04-10T19:21:17.799Z,28.02
2019-04-10T19:23:47.781Z,27.32
2019-04-10T19:26:18.915Z,26.77
2019-04-10T19:28:48.691Z,25.80
2019-04-10T19:31:21.249Z,25.50
2019-04-10T19:33:49.114Z,28.38
2019-04-10T19:36:17.640Z,29.75
2019-04-10T19:38:46.019Z,28.38
2019-04-10T19:41:25.097Z,27.77
2019-04-10T19:43:44.444Z,27.17
2019-04-10T19:46:12.844Z,28.42
2019-04-10T19:48:41.532Z,26.40
2019-04-10T19:51:10.108Z,25.17
2019-04-10T19:53:39.437Z,25.55
2019-04-10T19:56:09.354Z,22.75
2019-04-10T19:58:38.536Z,26.80
2019-04-10T20:01:07.069Z,27.95
2019-04-10T20:03:35.511Z,28.15
2019-04-10T20:06:03.944Z,27.35
2019-04-10T20:08:33.393Z,26.85
2019-04-10T20:11:02.441Z,27.07
2019-04-10T20:13:30.899Z,22.90
2019-04-10T20:15:59.270Z,23.30
2019-04-10T20:18:28.548Z,22.17
2019-04-10T20:20:56.953Z,21.37
2019-04-10T20:23:25.342Z,20.05
2019-04-10T20:25:54.610Z,20.70
2019-04-10T20:28:23.160Z,20.40
2019-04-10T20:30:54.542Z,19.25
2019-04-10T20:33:21.575Z,19.27
2019-04-10T20:35:50.866Z,19.80
2019-04-10T20:38:19.709Z,19.12
2019-04-10T20:40:51.932Z,19.95
2019-04-10T20:43:20.588Z,20.70
2019-04-10T20:45:49.693Z,20.20
2019-04-10T20:48:18.247Z,18.85
2019-04-10T20:50:46.609Z,18.00
2019-04-10T20:53:15.875Z,18.02
2019-04-10T20:55:44.381Z,17.50
2019-04-10T20:58:13.379Z,16.62
2019-04-10T21:00:43.068Z,16.85
2019-04-10T21:03:11.727Z,16.62
2019-04-10T21:05:40.238Z,16.20
2019-04-10T21:08:09.421Z,15.90
2019-04-10T21:10:38.684Z,15.88
2019-04-10T21:13:07.131Z,15.00
2019-04-10T21:15:35.513Z,15.45
2019-04-10T21:18:04.720Z,14.80
2019-04-10T21:20:34.495Z,15.08
2019-04-10T21:23:03.465Z,17.90
2019-04-10T21:25:32.954Z,16.95
2019-04-10T21:28:02.510Z,15.68
2019-04-10T21:30:48.813Z,15.20
2019-04-10T21:33:35.176Z,14.70
2019-04-10T21:36:03.627Z,15.98
2019-04-10T21:38:32.299Z,15.32
2019-04-10T21:41:00.729Z,15.08
2019-04-10T21:43:30.213Z,15.50
2019-04-10T21:45:59.565Z,13.88
2019-04-10T21:48:28.080Z,14.58
2019-04-10T21:50:56.455Z,14.87
2019-04-10T21:53:24.849Z,14.33
2019-04-10T21:55:53.679Z,14.40
2019-04-10T21:58:22.223Z,14.85
2019-04-10T22:01:01.377Z,14.30
2019-04-10T22:03:29.987Z,14.13
2019-04-10T22:06:00.074Z,13.48
2019-04-10T22:08:45.707Z,13.65
2019-04-10T22:11:14.898Z,13.22
2019-04-10T22:13:44.213Z,12.58
2019-04-10T22:16:14.612Z,12.75
2019-04-10T22:18:42.951Z,12.98
2019-04-10T22:21:12.319Z,12.75
2019-04-10T22:23:40.748Z,12.75
2019-04-10T22:26:09.521Z,12.47
2019-04-10T22:28:37.944Z,12.68
2019-04-10T22:31:07.357Z,12.50
2019-04-10T22:33:36.357Z,13.22
2019-04-10T22:36:04.876Z,12.93
2019-04-10T22:38:33.495Z,13.05
2019-04-10T22:41:02.511Z,12.28
2019-04-10T22:43:32.080Z,12.25
2019-04-10T22:46:00.561Z,12.45
2019-04-10T22:48:28.917Z,13.08
2019-04-10T22:50:57.311Z,12.05
2019-04-10T22:53:25.710Z,12.55
2019-04-10T22:55:54.094Z,12.10
2019-04-10T22:58:22.481Z,12.25
2019-04-10T23:00:51.046Z,12.65
2019-04-10T23:03:20.220Z,11.43
2019-04-10T23:05:48.922Z,11.48
2019-04-10T23:08:17.688Z,12.20
2019-04-10T23:10:46.135Z,11.48
2019-04-10T23:13:14.512Z,12.00
2019-04-10T23:15:43.899Z,12.50
2019-04-10T23:18:13.036Z,12.25
2019-04-10T23:20:41.740Z,11.83
2019-04-10T23:23:10.663Z,12.15
2019-04-10T23:25:39.093Z,12.28
2019-04-10T23:28:07.546Z,12.20
2019-04-10T23:30:37.079Z,11.28
2019-04-10T23:33:05.933Z,11.38
2019-04-10T23:35:34.464Z,11.68
2019-04-10T23:38:03.845Z,11.03
2019-04-10T23:40:32.774Z,11.83
2019-04-10T23:43:10.729Z,11.05
2019-04-10T23:45:31.499Z,11.35
2019-04-10T23:48:00.364Z,10.88
2019-04-10T23:50:28.770Z,11.97
2019-04-10T23:52:58.258Z,10.98
2019-04-10T23:55:26.771Z,11.55
2019-04-10T23:57:55.916Z,11.68
